Latest Weather Observations for Wyndham Airport

IDD60801

Issued at 8:21 am CST Thursday 23 January 2020 (issued every 10 minutes, with the page automatically refreshed every 10 minutes)

About weather observations | Map of weather stations | Latest weather observations for NT | Other Formats
Station Details ID: 001006 Name: WYNDHAM AERO Lat: -15.51 Lon: 128.15 Height: 3.8 m
Data from the previous 72 hours. | See also: Recent months at Wyndham Airport
Date/Time
CST
Temp
°C
App
Temp
°C
Dew
Point
°C
Rel
Hum
%
Delta-T
°C
Wind Press
QNH
hPa
Press
MSL
hPa
Rain since
9am
mm
Dir  Spd
km/h
Gust
km/h
Spd
kts
Gust
kts
23/08:00am 27.7 30.8 23.5 78 2.9 W 13 15 7 8 1006.7 1006.7 0.2
23/07:30am 27.5 30.4 23.1 77 3.0 W 13 15 7 8 1006.7 1006.7 0.2
23/07:00am 27.3 30.7 23.3 79 2.7 WNW 11 13 6 7 1006.2 1006.2 0.2
23/06:30am 27.2 30.3 22.8 77 3.0 W 11 13 6 7 1005.8 1005.8 0.2
23/06:00am 27.5 30.6 23.5 79 2.7 W 13 15 7 8 1005.4 1005.4 0.2
23/05:30am 27.3 29.6 23.5 80 2.6 WNW 17 19 9 10 1005.1 1005.1 0.2
23/05:00am 27.5 31.1 23.7 80 2.6 NW 11 13 6 7 1005.4 1005.4 0.2
23/04:30am 27.7 31.4 23.3 77 3.0 NW 9 11 5 6 1005.6 1005.6 0.2
23/04:00am 27.6 32.6 24.8 85 2.0 N 7 9 4 5 1005.7 1005.7 0.2
23/03:30am 27.6 32.7 25.0 86 1.8 WNW 7 9 4 5 1005.9 1005.9 0.2
23/03:00am 27.6 34.1 25.0 86 1.8 CALM 0 0 0 0 1006.0 1006.0 0.2
23/02:30am 27.7 31.2 24.9 85 2.0 SW 15 17 8 9 1006.2 1006.2 0.2
23/02:00am 27.9 32.5 24.7 83 2.2 W 9 11 5 6 1005.5 1005.5 0.2
23/01:30am 27.9 31.6 24.5 82 2.4 NW 13 15 7 8 1005.9 1005.9 0.2
23/01:00am 28.2 30.2 24.0 78 2.9 NW 20 28 11 15 1006.6 1006.6 0.2
23/12:30am 28.9 31.6 24.7 78 2.9 NW 19 26 10 14 1006.7 1006.7 0.2
23/12:00am 29.0 33.9 24.3 76 3.3 E 6 9 3 5 1007.5 1007.5 0.2
 
Date/Time
CST
Temp
°C
App
Temp
°C
Dew
Point
°C
Rel
Hum
%
Delta-T
°C
Wind Press
QNH
hPa
Press
MSL
hPa
Rain since
9am
mm
Dir  Spd
km/h
Gust
km/h
Spd
kts
Gust
kts
22/11:30pm 28.8 32.4 24.4 77 3.1 ESE 13 13 7 7 1007.4 1007.4 0.2
22/11:00pm 28.8 32.1 23.9 75 3.4 ENE 13 15 7 8 1007.0 1007.0 0.2
22/10:30pm 28.9 31.4 23.8 74 3.5 E 17 20 9 11 1007.0 1007.0 0.2
22/10:10pm 28.9 30.7 24.2 76 3.3 SE 22 37 12 20 1006.9 1006.9 0.2
22/10:00pm 29.0 34.6 24.3 76 3.3 NW 2 6 1 3 1006.3 1006.3 0.2
22/09:30pm 29.3 32.4 23.5 71 4.0 WNW 13 15 7 8 1005.3 1005.3 0.2
22/09:00pm 29.4 33.2 24.0 72 3.7 W 11 15 6 8 1004.7 1004.7 0.2
22/08:30pm 28.9 33.5 23.8 74 3.5 WNW 6 13 3 7 1004.9 1004.9 0.2
22/08:00pm 30.4 30.6 22.0 60 5.7 NNW 24 32 13 17 1004.4 1004.4 0.2
22/07:30pm 31.7 34.4 23.5 62 5.7 N 15 19 8 10 1003.3 1003.3 0.2
22/07:00pm 31.9 33.9 22.9 59 6.2 NNW 17 24 9 13 1003.1 1003.1 0.2
22/06:30pm 31.2 30.9 22.5 60 6.0 NW 28 39 15 21 1003.0 1003.0 0.2
22/06:19pm 29.6 28.9 21.8 63 5.3 NW 28 48 15 26 1003.0 1003.0 0.2
22/06:00pm 32.7 33.1 22.5 55 7.0 W 24 37 13 20 1002.7 1002.7 0.0
22/05:52pm 34.5 31.8 20.5 44 9.4 WSW 35 52 19 28 1002.6 1002.6 0.0
22/05:37pm 34.5 35.5 22.9 51 8.0 WSW 22 50 12 27 1002.9 1002.9 0.0
22/05:30pm 36.2 38.8 22.7 45 9.4 SW 13 20 7 11 1003.0 1003.0 0.0
22/05:00pm 37.3 39.0 23.4 45 9.7 W 20 33 11 18 1002.9 1002.9 0.0
22/04:30pm 37.5 39.1 22.8 42 10.2 W 19 26 10 14 1003.2 1003.2 0.0
22/04:00pm 37.3 39.2 23.7 45 9.5 SW 20 30 11 16 1003.7 1003.7 0.0
22/03:30pm 37.1 37.3 22.0 41 10.4 SW 24 35 13 19 1004.2 1004.2 0.0
22/03:00pm 37.0 39.9 24.5 48 8.9 W 17 24 9 13 1004.5 1004.5 0.0
22/02:30pm 36.3 38.6 23.5 47 9.0 W 17 30 9 16 1005.2 1005.2 0.0
22/02:00pm 35.8 38.3 24.4 51 8.0 SW 19 30 10 16 1005.8 1005.8 0.0
22/01:30pm 35.1 37.0 23.8 52 7.9 WSW 20 32 11 17 1006.3 1006.3 0.0
22/01:00pm 34.6 36.4 23.6 52 7.7 WSW 20 30 11 16 1006.8 1006.8 0.0
22/12:30pm 33.6 34.9 22.7 53 7.5 WSW 20 26 11 14 1007.4 1007.4 0.0
22/12:00pm 33.2 35.5 24.1 59 6.4 SW 19 28 10 15 1007.9 1007.9 0.0
22/11:30am 32.3 35.5 24.9 65 5.2 SW 17 28 9 15 1008.2 1008.2 0.0
22/11:00am 31.5 33.5 23.6 63 5.5 SW 19 26 10 14 1008.4 1008.4 0.0
22/10:30am 30.9 32.7 23.3 64 5.2 SW 19 26 10 14 1008.4 1008.4 10.0
22/10:00am 30.2 30.6 23.1 65 4.9 WSW 26 30 14 16 1008.4 1008.4 10.0
22/09:30am 29.8 30.4 24.2 72 3.9 WSW 28 39 15 21 1008.3 1008.3 10.0
22/09:00am 29.1 29.5 23.8 73 3.7 WSW 28 33 15 18 1008.2 1008.2 10.0
22/08:30am 28.4 30.4 24.0 77 3.0 WSW 20 24 11 13 1008.0 1008.0 10.0
22/08:00am 27.4 30.3 23.8 81 2.5 WSW 15 19 8 10 1007.8 1007.8 10.0
22/07:30am 26.6 30.0 24.1 86 1.7 SW 13 15 7 8 1007.7 1007.7 10.0
22/07:00am 26.0 29.3 23.9 88 1.4 WSW 13 13 7 7 1007.2 1007.2 10.0
22/06:30am 26.0 30.1 23.9 88 1.4 W 9 11 5 6 1006.9 1006.9 10.0
22/06:00am 26.0 30.5 24.0 89 1.4 W 7 9 4 5 1006.6 1006.6 10.0
22/05:30am 26.4 29.3 23.9 86 1.7 W 15 17 8 9 1006.6 1006.6 10.0
22/05:00am 26.4 29.9 24.2 88 1.5 W 13 17 7 9 1006.4 1006.4 10.0
22/04:30am 26.3 30.2 24.3 89 1.4 W 11 13 6 7 1006.7 1006.7 10.0
22/04:00am 25.8 29.8 23.8 89 1.4 NW 9 11 5 6 1006.6 1006.6 10.0
22/03:30am 25.8 29.1 23.8 89 1.4 SW 13 17 7 9 1006.5 1006.5 10.0
22/03:00am 25.5 28.7 23.7 90 1.2 SSW 13 17 7 9 1006.6 1006.6 10.0
22/02:30am 25.4 27.8 23.6 90 1.2 SW 17 24 9 13 1006.3 1006.3 9.8
22/02:00am 27.3 31.1 25.3 89 1.4 WSW 15 20 8 11 1006.7 1006.7 7.8
22/01:30am 27.0 31.7 25.6 92 1.0 SE 11 15 6 8 1007.4 1007.4 7.6
22/01:00am 26.6 33.2 25.2 92 1.0 CALM 0 0 0 0 1007.4 1007.4 7.6
22/12:30am 26.3 31.6 24.9 92 1.0 ESE 6 6 3 3 1007.5 1007.5 7.6
22/12:00am 26.4 31.0 24.8 91 1.1 ESE 9 11 5 6 1007.7 1007.7 7.6
 
Date/Time
CST
Temp
°C
App
Temp
°C
Dew
Point
°C
Rel
Hum
%
Delta-T
°C
Wind Press
QNH
hPa
Press
MSL
hPa
Rain since
9am
mm
Dir  Spd
km/h
Gust
km/h
Spd
kts
Gust
kts
21/11:30pm 26.7 32.1 24.5 88 1.5 ESE 4 9 2 5 1008.0 1008.0 7.2
21/11:00pm 27.2 31.4 25.4 90 1.3 ESE 13 15 7 8 1008.7 1008.7 7.0
21/10:30pm 27.3 31.3 25.1 88 1.5 E 13 15 7 8 1008.2 1008.2 7.0
21/10:00pm 27.5 32.9 25.5 89 1.4 W 7 9 4 5 1007.8 1007.8 7.0
21/09:30pm 27.6 32.9 25.2 87 1.7 W 7 9 4 5 1007.5 1007.5 7.0
21/09:00pm 27.7 32.0 24.9 85 2.0 WSW 11 13 6 7 1006.4 1006.4 6.6
21/08:30pm 27.8 31.9 25.2 86 1.8 W 13 15 7 8 1006.3 1006.3 6.4
21/08:00pm 28.2 31.7 25.4 85 2.0 WNW 17 19 9 10 1006.2 1006.2 6.0
21/07:30pm 28.1 31.4 25.7 87 1.7 WNW 19 22 10 12 1005.2 1005.2 6.0
21/07:00pm 28.2 30.7 25.4 85 2.0 NW 22 30 12 16 1004.8 1004.8 6.0
21/06:30pm 28.0 33.4 26.0 89 1.4 NNW 9 17 5 9 1004.5 1004.5 6.0
21/06:07pm 28.6 31.1 24.4 78 2.9 NW 19 54 10 29 1004.6 1004.6 2.8
21/06:00pm 30.9 34.5 25.0 71 4.2 N 15 20 8 11 1003.8 1003.8 1.8
21/05:30pm 31.5 35.5 24.4 66 5.0 NNW 11 17 6 9 1003.8 1003.8 1.8
21/05:00pm 31.3 36.2 24.4 66 4.8 NNW 6 9 3 5 1003.0 1003.0 1.8
21/04:30pm 30.3 35.2 24.4 70 4.1 WNW 6 9 3 5 1002.9 1002.9 1.8
21/04:00pm 30.0 36.2 24.6 73 3.8 CALM 0 0 0 0 1003.6 1003.6 1.8
21/03:30pm 28.8 34.1 24.4 77 3.1 SW 4 7 2 4 1003.8 1003.8 1.8
21/03:00pm 28.1 31.6 24.9 83 2.2 S 15 19 8 10 1004.4 1004.4 1.6
21/02:30pm 28.3 32.0 24.5 80 2.6 WNW 13 17 7 9 1004.6 1004.6 1.6
21/02:00pm 28.2 27.6 25.0 83 2.2 W 37 57 20 31 1005.1 1005.1 1.6
21/01:58pm 28.2 27.1 24.8 82 2.4 W 39 57 21 31 1005.1 1005.1 1.6
21/01:48pm 31.1 34.4 25.7 73 3.8 W 19 43 10 23 1005.0 1005.0 0.2
21/01:30pm 31.9 37.1 25.7 69 4.4 SW 9 15 5 8 1005.3 1005.3 0.2
21/01:00pm 30.6 36.2 25.7 75 3.5 NNW 7 15 4 8 1005.8 1005.8 0.2
21/12:30pm 29.3 33.7 25.1 78 3.0 WSW 11 15 6 8 1006.3 1006.3 0.2
21/12:00pm 28.7 33.9 25.1 81 2.5 SW 7 13 4 7 1007.0 1007.0 0.2
21/11:30am 27.9 34.0 24.5 82 2.4 CALM 0 0 0 0 1007.4 1007.4 0.0
21/11:00am 26.8 32.0 24.8 89 1.4 NW 6 9 3 5 1007.8 1007.8 0.0
21/10:30am 25.4 30.2 24.4 94 0.7 WSW 7 13 4 7 1007.9 1007.9 26.2
21/10:00am 24.4 26.7 23.4 94 0.7 WSW 17 19 9 10 1007.8 1007.8 25.8
21/09:30am 25.7 29.5 24.7 94 0.7 S 13 15 7 8 1007.6 1007.6 22.4
21/09:00am 26.0 30.0 25.0 94 0.7 ESE 13 15 7 8 1007.4 1007.4 20.6
21/08:30am 26.0 29.9 24.8 93 0.8 ESE 13 17 7 9 1007.1 1007.1 19.8
21/08:00am 26.0 29.2 25.0 94 0.7 ESE 17 19 9 10 1006.7 1006.7 19.8
21/07:30am 25.8 28.5 24.8 94 0.7 ESE 19 22 10 12 1006.4 1006.4 19.8
21/07:00am 25.9 28.9 24.7 93 0.8 ESE 17 19 9 10 1006.2 1006.2 19.8
21/06:30am 25.9 29.3 24.7 93 0.8 ESE 15 19 8 10 1005.8 1005.8 19.8
21/06:00am 25.9 29.7 24.7 93 0.8 ESE 13 17 7 9 1005.6 1005.6 19.8
21/05:30am 25.9 30.1 24.7 93 0.8 ESE 11 17 6 9 1005.5 1005.5 19.8
21/05:00am 25.6 29.7 24.6 94 0.7 NW 11 13 6 7 1005.5 1005.5 19.8
21/04:30am 25.6 30.7 24.6 94 0.7 NW 6 9 3 5 1005.6 1005.6 19.8
21/04:00am 25.5 30.4 24.3 93 0.8 NW 6 9 3 5 1005.6 1005.6 18.6
21/03:30am 26.0 29.6 24.4 91 1.1 NW 13 17 7 9 1005.9 1005.9 14.8
21/03:00am 26.3 30.2 24.3 89 1.4 NNW 11 13 6 7 1005.7 1005.7 14.4
21/02:30am 26.3 28.5 24.0 87 1.6 NNW 19 24 10 13 1006.0 1006.0 14.4
21/02:00am 27.6 33.7 24.4 83 2.2 CALM 0 0 0 0 1006.1 1006.1 13.8
21/01:30am 27.3 32.0 24.0 82 2.3 N 6 7 3 4 1006.6 1006.6 13.8
21/01:00am 27.7 30.0 23.5 78 2.9 NNW 17 20 9 11 1006.9 1006.9 13.8
21/12:30am 28.5 32.2 23.9 76 3.2 NNW 11 15 6 8 1007.1 1007.1 13.8
21/12:00am 28.5 31.8 23.9 76 3.2 NW 13 15 7 8 1007.2 1007.2 13.8
 
Date/Time
CST
Temp
°C
App
Temp
°C
Dew
Point
°C
Rel
Hum
%
Delta-T
°C
Wind Press
QNH
hPa
Press
MSL
hPa
Rain since
9am
mm
Dir  Spd
km/h
Gust
km/h
Spd
kts
Gust
kts
20/11:30pm 28.6 31.0 23.7 75 3.4 NW 17 20 9 11 1007.6 1007.6 13.8
20/11:00pm 28.9 31.7 23.6 73 3.6 NW 15 17 8 9 1007.7 1007.7 13.8
20/10:30pm 28.9 31.3 23.6 73 3.7 NW 17 19 9 10 1007.9 1007.9 13.8
20/10:00pm 29.0 31.1 23.7 73 3.7 NW 19 22 10 12 1007.4 1007.4 13.8
20/09:30pm 29.1 31.6 23.8 73 3.7 NW 17 19 9 10 1006.9 1006.9 13.8
20/09:00pm 29.1 31.4 23.5 72 3.9 NW 17 22 9 12 1006.6 1006.6 13.8
20/08:30pm 29.2 31.2 23.6 72 3.9 NW 19 24 10 13 1006.6 1006.6 13.8
20/08:00pm 29.6 31.5 23.8 71 4.0 NW 20 28 11 15 1006.0 1006.0 13.8
20/07:30pm 29.7 33.6 24.8 75 3.4 NW 13 17 7 9 1004.8 1004.8 13.8
20/07:00pm 29.0 34.1 25.0 79 2.8 N 7 15 4 8 1004.5 1004.5 13.8
20/06:30pm 28.0 32.6 25.4 86 1.8 E 11 15 6 8 1004.5 1004.5 13.6
20/06:00pm 27.0 28.0 24.1 84 2.0 NNW 26 43 14 23 1004.3 1004.3 9.2
20/05:30pm 28.3 32.1 24.7 81 2.5 NNE 13 32 7 17 1003.4 1003.4 8.6
20/05:01pm 30.6 30.8 23.5 66 4.9 NNW 28 52 15 28 1003.2 1003.2 0.0
20/05:00pm 31.9 33.3 24.2 63 5.4 NNW 24 46 13 25 1003.2 1003.2 0.0
20/04:30pm 34.6 35.9 22.3 48 8.5 NNW 19 24 10 13 1002.8 1002.8 0.0
20/04:00pm 34.7 37.9 23.7 52 7.7 N 13 20 7 11 1003.0 1003.0 0.0
20/03:30pm 34.3 34.8 23.3 52 7.7 NNW 26 32 14 17 1003.3 1003.3 0.0
20/03:00pm 35.6 36.0 20.7 41 10.0 NW 19 24 10 13 1003.6 1003.6 0.0
20/02:30pm 36.0 38.1 22.5 45 9.3 NW 15 28 8 15 1003.9 1003.9 0.0
20/02:00pm 35.2 37.7 23.2 49 8.3 WNW 15 26 8 14 1004.5 1004.5 0.0
20/01:30pm 35.0 36.3 22.3 47 8.7 NW 19 26 10 14 1005.2 1005.2 0.0
20/01:00pm 34.1 36.1 22.2 50 8.1 NW 15 24 8 13 1006.0 1006.0 0.0
20/12:30pm 33.1 35.6 22.5 53 7.3 NNW 13 20 7 11 1006.7 1006.7 0.0
20/12:00pm 33.1 36.7 23.7 57 6.5 NW 11 17 6 9 1007.1 1007.1 0.0
20/11:30am 32.5 35.9 23.4 58 6.3 WSW 11 17 6 9 1007.6 1007.6 0.0
20/11:00am 32.5 35.1 24.0 61 5.9 WSW 17 22 9 12 1007.8 1007.8 0.0
20/10:30am 31.7 35.3 24.3 65 5.2 W 13 20 7 11 1008.1 1008.1 2.0
20/10:00am 31.0 33.3 23.4 64 5.2 W 17 22 9 12 1008.4 1008.4 2.0

Other formats

Comma delimited format used in spreadsheet applications
http://www.bom.gov.au/fwo/IDD60801/IDD60801.95214.axf

JavaScript Object Notation format (JSON) in row-major order
http://www.bom.gov.au/fwo/IDD60801/IDD60801.95214.json

Data quality

Most of these data are generated automatically and are frequently updated. Quality checks on data are not normally performed. It is possible for incorrect values to appear. Refer to information at About Latest Weather Observations and please check the disclaimer before using these data.